createdAt,value
2018-12-22T00:00:19.068Z,13.13
2018-12-22T00:02:53.986Z,14.33
2018-12-22T00:05:24.448Z,13.23
2018-12-22T00:07:54.232Z,13.23
2018-12-22T00:10:26.907Z,13.60
2018-12-22T00:12:57.031Z,14.60
2018-12-22T00:15:26.847Z,12.87
2018-12-22T00:17:59.363Z,13.70
2018-12-22T00:20:29.358Z,13.60
2018-12-22T00:23:01.835Z,11.90
2018-12-22T00:25:34.727Z,12.37
2018-12-22T00:28:09.314Z,13.17
2018-12-22T00:30:39.155Z,14.00
2018-12-22T00:33:18.733Z,14.40
2018-12-22T00:35:49.712Z,12.20
2018-12-22T00:38:20.859Z,14.10
2018-12-22T00:40:55.475Z,13.60
2018-12-22T00:43:29.698Z,12.77
2018-12-22T00:45:59.531Z,13.77
2018-12-22T00:48:29.417Z,14.23
2018-12-22T00:50:59.398Z,13.47
2018-12-22T00:53:33.997Z,14.00
2018-12-22T00:56:10.581Z,12.33
2018-12-22T00:58:41.215Z,14.70
2018-12-22T01:01:13.838Z,13.93
2018-12-22T01:03:44.197Z,13.23
2018-12-22T01:06:17.926Z,12.93
2018-12-22T01:08:50.781Z,13.20
2018-12-22T01:11:21.085Z,12.00
2018-12-22T01:13:53.638Z,13.23
2018-12-22T01:16:24.319Z,14.43
2018-12-22T01:18:57.642Z,13.77
2018-12-22T01:21:31.268Z,12.90
2018-12-22T01:24:01.528Z,12.67
2018-12-22T01:26:31.246Z,14.30
2018-12-22T01:29:01.274Z,13.43
2018-12-22T01:31:31.210Z,12.83
2018-12-22T01:34:04.799Z,12.47
2018-12-22T01:36:34.918Z,11.73
2018-12-22T01:39:05.583Z,13.57
2018-12-22T01:41:39.865Z,12.37
2018-12-22T01:44:14.502Z,12.53
2018-12-22T01:46:47.276Z,11.73
2018-12-22T01:49:26.582Z,12.53
2018-12-22T01:51:57.783Z,13.83
2018-12-22T01:54:32.111Z,14.17
2018-12-22T01:57:05.880Z,12.73
2018-12-22T01:59:37.219Z,11.43
2018-12-22T02:02:07.449Z,11.53
2018-12-22T02:04:40.036Z,12.13
2018-12-22T02:07:10.204Z,11.07
2018-12-22T02:09:40.405Z,11.37
2018-12-22T02:12:15.170Z,10.83
2018-12-22T02:14:45.007Z,10.80
2018-12-22T02:17:17.537Z,10.87
2018-12-22T02:19:51.289Z,10.50
2018-12-22T02:22:25.543Z,10.93
2018-12-22T02:24:56.278Z,9.80
2018-12-22T02:27:29.141Z,10.10
2018-12-22T02:29:59.418Z,9.63
2018-12-22T02:32:32.175Z,9.63
2018-12-22T02:35:09.665Z,9.43
2018-12-22T02:37:40.155Z,9.67
2018-12-22T02:40:13.247Z,9.67
2018-12-22T02:42:47.596Z,10.10
2018-12-22T02:45:18.499Z,9.40
2018-12-22T02:47:48.223Z,9.50
2018-12-22T02:50:23.677Z,10.00
2018-12-22T02:52:53.703Z,11.03
2018-12-22T02:55:27.563Z,9.73
2018-12-22T02:57:57.654Z,12.27
2018-12-22T03:00:27.601Z,11.33
2018-12-22T03:03:00.314Z,12.23
2018-12-22T03:05:35.932Z,12.87
2018-12-22T03:08:06.453Z,12.70
2018-12-22T03:10:44.084Z,12.20
2018-12-22T03:13:14.850Z,11.60
2018-12-22T03:15:43.281Z,12.50
2018-12-22T03:18:15.878Z,12.37
2018-12-22T03:20:50.400Z,12.03
2018-12-22T03:23:21.058Z,12.60
2018-12-22T03:25:50.743Z,12.50
2018-12-22T03:28:21.284Z,11.27
2018-12-22T03:30:51.739Z,11.50
2018-12-22T03:33:21.957Z,11.93
2018-12-22T03:35:52.571Z,10.03
2018-12-22T03:38:26.259Z,10.50
2018-12-22T03:40:56.556Z,10.07
2018-12-22T03:43:27.084Z,10.17
2018-12-22T03:45:55.286Z,9.97
2018-12-22T03:48:25.353Z,9.47
2018-12-22T03:50:57.964Z,9.93
2018-12-22T03:53:28.166Z,9.83
2018-12-22T03:56:00.740Z,9.60
2018-12-22T03:58:33.565Z,9.40
2018-12-22T04:01:08.020Z,8.60
2018-12-22T04:03:38.687Z,8.40
2018-12-22T04:06:11.292Z,9.93
2018-12-22T04:08:48.951Z,8.90
2018-12-22T04:11:19.296Z,8.67
2018-12-22T04:13:53.831Z,9.17
2018-12-22T04:16:28.173Z,8.47
2018-12-22T04:19:01.088Z,9.47
2018-12-22T04:21:31.395Z,8.20
2018-12-22T04:24:02.113Z,8.10
2018-12-22T04:26:32.035Z,8.70
2018-12-22T04:29:01.784Z,8.17
2018-12-22T04:31:34.379Z,7.93
2018-12-22T04:34:08.199Z,9.23
2018-12-22T04:36:41.065Z,9.00
2018-12-22T04:39:11.619Z,8.67
2018-12-22T04:41:44.779Z,8.57
2018-12-22T04:44:17.884Z,7.83
2018-12-22T04:46:50.757Z,8.37
2018-12-22T04:49:23.520Z,8.97
2018-12-22T04:51:57.763Z,8.53
2018-12-22T04:54:35.255Z,8.70
2018-12-22T04:57:12.200Z,8.47
2018-12-22T04:59:45.303Z,7.53
2018-12-22T05:02:15.653Z,7.80
2018-12-22T05:04:49.132Z,8.63
2018-12-22T05:07:25.741Z,8.00
2018-12-22T05:09:56.331Z,8.97
2018-12-22T05:12:30.166Z,8.33
2018-12-22T05:15:01.336Z,8.20
2018-12-22T05:17:31.483Z,8.67
2018-12-22T05:20:04.002Z,8.80
2018-12-22T05:22:35.218Z,8.93
2018-12-22T05:25:05.623Z,9.47
2018-12-22T05:27:36.298Z,9.70
2018-12-22T05:30:07.244Z,8.50
2018-12-22T05:32:35.930Z,8.50
2018-12-22T05:35:05.932Z,7.40
2018-12-22T05:37:35.847Z,8.53
2018-12-22T05:40:08.770Z,7.83
2018-12-22T05:42:41.697Z,8.43
2018-12-22T05:45:11.905Z,8.17
2018-12-22T05:47:42.411Z,7.10
2018-12-22T05:50:15.294Z,6.93
2018-12-22T05:52:49.303Z,7.33
2018-12-22T05:55:26.073Z,8.23
2018-12-22T05:57:56.555Z,7.90
2018-12-22T06:00:29.211Z,8.07
2018-12-22T06:03:03.126Z,7.67
2018-12-22T06:05:37.890Z,8.20
2018-12-22T06:08:10.927Z,8.00
2018-12-22T06:10:41.140Z,9.30
2018-12-22T06:13:15.452Z,7.80
2018-12-22T06:15:50.239Z,8.17
2018-12-22T06:18:20.543Z,9.13
2018-12-22T06:20:55.388Z,8.30
2018-12-22T06:23:28.001Z,9.50
2018-12-22T06:25:58.298Z,8.47
2018-12-22T06:28:31.851Z,7.93
2018-12-22T06:31:01.981Z,8.23
2018-12-22T06:33:32.500Z,8.13
2018-12-22T06:36:03.174Z,8.67
2018-12-22T06:38:33.876Z,8.73
2018-12-22T06:41:06.661Z,8.13
2018-12-22T06:43:39.228Z,7.83
2018-12-22T06:46:11.931Z,7.93
2018-12-22T06:48:45.584Z,7.80
2018-12-22T06:53:52.405Z,7.80
2018-12-22T06:56:29.043Z,7.67
2018-12-22T06:59:01.857Z,8.17
2018-12-22T07:01:34.392Z,7.97
2018-12-22T07:04:02.906Z,8.07
2018-12-22T07:06:33.527Z,7.43
2018-12-22T07:09:04.792Z,7.17
2018-12-22T07:11:35.416Z,7.40
2018-12-22T07:14:08.261Z,7.43
2018-12-22T07:16:38.188Z,8.10
2018-12-22T07:19:08.348Z,8.47
2018-12-22T07:21:40.992Z,9.47
2018-12-22T07:24:14.924Z,10.10
2018-12-22T07:26:48.790Z,9.17
2018-12-22T07:29:22.828Z,8.47
2018-12-22T07:31:55.689Z,9.13
2018-12-22T07:34:28.459Z,9.17
2018-12-22T07:37:01.903Z,8.37
2018-12-22T07:39:35.910Z,9.23
2018-12-22T07:42:12.476Z,11.23
2018-12-22T07:44:44.192Z,10.03
2018-12-22T07:47:14.878Z,9.77
2018-12-22T07:49:47.626Z,10.03
2018-12-22T07:52:17.460Z,10.17
2018-12-22T07:54:50.154Z,9.73
2018-12-22T07:57:23.134Z,8.90
2018-12-22T07:59:55.960Z,9.50
2018-12-22T08:02:29.764Z,10.90
2018-12-22T08:04:59.953Z,9.13
2018-12-22T08:07:32.528Z,8.50
2018-12-22T08:10:05.293Z,10.20
2018-12-22T08:12:43.875Z,9.73
2018-12-22T08:15:16.930Z,8.40
2018-12-22T08:17:46.944Z,8.10
2018-12-22T08:20:17.688Z,8.50
2018-12-22T08:22:47.423Z,8.53
2018-12-22T08:25:18.183Z,8.50
2018-12-22T08:27:47.940Z,8.77
2018-12-22T08:30:18.169Z,9.60
2018-12-22T08:32:51.776Z,7.67
2018-12-22T08:35:22.007Z,10.13
2018-12-22T08:37:52.028Z,8.93
2018-12-22T08:40:24.732Z,8.63
2018-12-22T08:42:58.010Z,8.77
2018-12-22T08:45:28.775Z,7.93
2018-12-22T08:48:02.094Z,7.53
2018-12-22T08:50:30.275Z,7.63
2018-12-22T08:53:00.191Z,8.23
2018-12-22T08:55:33.834Z,7.50
2018-12-22T08:58:08.011Z,9.03
2018-12-22T09:00:51.948Z,9.80
2018-12-22T09:03:20.791Z,9.00
2018-12-22T09:05:54.447Z,9.77
2018-12-22T09:08:23.405Z,8.97
2018-12-22T09:10:53.274Z,10.00
2018-12-22T09:13:25.949Z,10.03
2018-12-22T09:16:02.933Z,10.57
2018-12-22T09:18:32.798Z,8.87
2018-12-22T09:21:02.556Z,13.50
2018-12-22T09:23:32.569Z,11.37
2018-12-22T09:26:09.303Z,8.73
2018-12-22T09:28:39.773Z,9.40
2018-12-22T09:31:16.327Z,9.80
2018-12-22T09:33:53.475Z,9.40
2018-12-22T09:36:23.341Z,14.30
2018-12-22T09:38:53.544Z,11.73
2018-12-22T09:41:24.351Z,10.33
2018-12-22T09:44:01.430Z,10.87
2018-12-22T09:46:32.116Z,11.13
2018-12-22T09:49:05.923Z,8.40
2018-12-22T09:51:36.661Z,9.17
2018-12-22T09:54:16.682Z,9.37
2018-12-22T09:56:49.377Z,8.60
2018-12-22T09:59:22.125Z,8.30
2018-12-22T10:01:55.810Z,8.70
2018-12-22T10:04:30.484Z,8.50
2018-12-22T10:16:41.249Z,9.20
2018-12-22T10:19:13.903Z,9.07
2018-12-22T10:21:45.159Z,9.30
2018-12-22T10:24:18.550Z,9.23
2018-12-22T10:26:49.264Z,9.67
2018-12-22T10:29:19.563Z,9.90
2018-12-22T10:31:49.487Z,10.57
2018-12-22T10:34:22.170Z,9.90
2018-12-22T10:36:54.857Z,10.30
2018-12-22T10:39:24.796Z,10.80
2018-12-22T10:42:03.453Z,11.00
2018-12-22T10:44:37.247Z,10.20
2018-12-22T10:47:11.253Z,11.60
2018-12-22T10:49:46.118Z,10.70
2018-12-22T10:52:21.068Z,10.97
2018-12-22T10:54:54.901Z,9.83
2018-12-22T10:57:35.207Z,10.93
2018-12-22T11:00:07.835Z,10.00
2018-12-22T11:02:36.038Z,10.67
2018-12-22T11:05:08.641Z,10.30
2018-12-22T11:07:45.495Z,7.77
2018-12-22T11:10:18.309Z,9.33
2018-12-22T11:12:52.347Z,8.53
2018-12-22T11:15:26.131Z,7.57
2018-12-22T11:17:58.975Z,7.97
2018-12-22T11:20:32.448Z,8.53
2018-12-22T11:23:02.877Z,8.83
2018-12-22T11:25:35.637Z,9.33
2018-12-22T11:28:06.026Z,11.40
2018-12-22T11:30:38.707Z,10.30
2018-12-22T11:33:12.368Z,10.47
2018-12-22T11:35:43.534Z,10.63
2018-12-22T11:38:16.245Z,10.67
2018-12-22T11:40:46.740Z,11.60
2018-12-22T11:43:16.976Z,11.10
2018-12-22T11:45:50.278Z,11.80
2018-12-22T11:48:24.135Z,10.20
2018-12-22T11:50:57.020Z,9.67
2018-12-22T11:53:30.598Z,9.53
2018-12-22T11:56:03.567Z,9.63
2018-12-22T11:58:38.314Z,9.73
2018-12-22T12:01:17.991Z,9.40
2018-12-22T12:03:50.972Z,7.93
2018-12-22T12:12:13.374Z,8.97
2018-12-22T12:23:31.879Z,9.10
2018-12-22T12:26:03.093Z,10.53
2018-12-22T12:34:29.281Z,10.33
2018-12-22T12:40:03.735Z,9.23
2018-12-22T12:42:36.215Z,10.13
2018-12-22T12:45:08.577Z,9.93
2018-12-22T12:48:00.877Z,9.87
2018-12-22T12:50:31.773Z,11.07
2018-12-22T12:53:09.650Z,9.20
2018-12-22T12:55:42.302Z,10.03
2018-12-22T12:58:12.483Z,9.63
2018-12-22T13:00:42.346Z,9.23
2018-12-22T13:03:31.072Z,9.80
2018-12-22T13:06:06.158Z,10.20
2018-12-22T13:08:34.746Z,10.50
2018-12-22T13:11:04.947Z,10.80
2018-12-22T13:13:37.864Z,11.03
2018-12-22T13:16:10.473Z,9.80
2018-12-22T13:18:40.584Z,8.70
2018-12-22T13:21:22.020Z,10.03
2018-12-22T13:23:55.081Z,10.20
2018-12-22T13:26:25.477Z,10.20
2018-12-22T13:28:59.926Z,9.83
2018-12-22T13:31:30.043Z,9.63
2018-12-22T13:34:05.086Z,10.57
2018-12-22T13:36:40.091Z,12.63
2018-12-22T13:39:23.576Z,12.47
2018-12-22T13:41:57.934Z,11.30
2018-12-22T13:44:31.900Z,12.50
2018-12-22T13:47:07.450Z,11.57
2018-12-22T13:52:23.909Z,12.47
2018-12-22T13:54:55.168Z,12.47
2018-12-22T13:57:32.546Z,13.87
2018-12-22T14:00:16.122Z,13.17
2018-12-22T14:02:50.951Z,12.60
2018-12-22T14:05:28.010Z,13.67
2018-12-22T14:08:05.386Z,14.27
2018-12-22T14:10:41.996Z,13.77
2018-12-22T14:13:15.467Z,12.80
2018-12-22T14:15:46.597Z,14.17
2018-12-22T14:18:19.858Z,13.43
2018-12-22T14:20:50.168Z,13.30
2018-12-22T14:23:22.900Z,11.80
2018-12-22T14:25:53.170Z,14.10
2018-12-22T14:28:24.032Z,13.50
2018-12-22T14:30:56.488Z,13.93
2018-12-22T14:33:30.704Z,14.93
2018-12-22T14:36:00.690Z,13.80
2018-12-22T14:38:30.441Z,12.97
2018-12-22T14:41:05.148Z,12.90
2018-12-22T14:43:35.510Z,13.53
2018-12-22T14:46:08.151Z,13.10
2018-12-22T14:48:38.275Z,13.93
2018-12-22T14:51:08.380Z,14.40
2018-12-22T14:53:38.199Z,15.43
2018-12-22T14:56:08.192Z,17.97
2018-12-22T14:58:44.826Z,18.03
2018-12-22T15:01:18.620Z,20.20
2018-12-22T15:03:55.369Z,17.97
2018-12-22T15:06:25.716Z,17.67
2018-12-22T15:09:00.900Z,17.93
2018-12-22T15:11:33.530Z,18.07
2018-12-22T15:14:10.058Z,17.77
2018-12-22T15:16:40.704Z,17.17
2018-12-22T15:19:10.707Z,19.43
2018-12-22T15:21:44.234Z,19.00
2018-12-22T15:24:14.218Z,19.33
2018-12-22T15:26:46.803Z,19.10
2018-12-22T15:29:15.029Z,20.10
2018-12-22T15:31:43.810Z,12.77
2018-12-22T15:34:17.387Z,14.37
2018-12-22T15:36:54.058Z,12.03
2018-12-22T15:39:27.065Z,12.80
2018-12-22T15:41:57.084Z,10.40
2018-12-22T15:44:29.880Z,10.87
2018-12-22T15:47:01.109Z,13.87
2018-12-22T15:49:33.592Z,8.53
2018-12-22T15:52:06.718Z,10.00
2018-12-22T15:54:39.551Z,13.97
2018-12-22T15:57:13.386Z,14.40
2018-12-22T15:59:43.838Z,19.93
2018-12-22T16:02:13.720Z,13.10
2018-12-22T16:04:43.599Z,16.27
2018-12-22T16:07:18.254Z,14.10
2018-12-22T16:09:52.331Z,11.90
2018-12-22T16:12:25.138Z,12.03
2018-12-22T16:14:59.913Z,11.60
2018-12-22T16:17:29.986Z,14.40
2018-12-22T16:20:00.288Z,11.90
2018-12-22T16:22:32.811Z,14.13
2018-12-22T16:25:11.349Z,16.37
2018-12-22T16:27:44.577Z,15.67
2018-12-22T16:30:17.277Z,14.07
2018-12-22T16:32:52.365Z,15.57
2018-12-22T16:35:27.032Z,15.23
2018-12-22T16:37:57.543Z,17.60
2018-12-22T16:40:31.049Z,17.23
2018-12-22T16:43:02.196Z,13.90
2018-12-22T16:45:32.093Z,11.30
2018-12-22T16:48:06.155Z,16.67
2018-12-22T16:50:39.949Z,16.90
2018-12-22T17:02:52.540Z,11.77
2018-12-22T17:05:25.282Z,12.33
2018-12-22T17:07:59.687Z,14.63
2018-12-22T17:10:30.395Z,13.93
2018-12-22T17:13:11.927Z,10.00
2018-12-22T17:15:44.414Z,12.27
2018-12-22T17:18:18.425Z,12.33
2018-12-22T17:20:51.223Z,13.10
2018-12-22T17:23:25.211Z,10.17
2018-12-22T17:25:56.682Z,11.37
2018-12-22T17:28:28.453Z,14.47
2018-12-22T17:30:59.758Z,15.37
2018-12-22T17:33:29.843Z,10.93
2018-12-22T17:36:03.915Z,4.27
2018-12-22T17:38:34.401Z,5.53
2018-12-22T17:41:06.897Z,4.27
2018-12-22T17:43:37.450Z,5.53
2018-12-22T17:46:08.073Z,7.27
2018-12-22T17:48:41.508Z,5.27
2018-12-22T17:51:11.635Z,4.33
2018-12-22T17:53:44.097Z,7.30
2018-12-22T17:56:15.120Z,12.50
2018-12-22T17:58:45.166Z,8.83
2018-12-22T18:01:18.761Z,9.70
2018-12-22T18:03:49.228Z,7.87
2018-12-22T18:06:19.066Z,8.30
2018-12-22T18:08:57.889Z,10.43
2018-12-22T18:11:27.956Z,9.73
2018-12-22T18:14:00.698Z,8.70
2018-12-22T18:16:30.814Z,9.03
2018-12-22T18:19:04.436Z,6.13
2018-12-22T18:21:34.328Z,8.57
2018-12-22T18:24:04.362Z,7.73
2018-12-22T18:26:38.402Z,7.90
2018-12-22T18:29:12.900Z,7.57
2018-12-22T18:31:46.182Z,8.73
2018-12-22T18:34:16.248Z,5.27
2018-12-22T18:36:48.744Z,6.07
2018-12-22T18:39:18.827Z,8.37
2018-12-22T18:41:51.486Z,8.43
2018-12-22T18:44:25.318Z,8.27
2018-12-22T18:46:55.706Z,10.73
2018-12-22T18:49:29.206Z,12.07
2018-12-22T18:51:59.471Z,14.20
2018-12-22T18:54:29.401Z,18.10
2018-12-22T18:56:59.203Z,11.60
2018-12-22T18:59:35.905Z,15.33
2018-12-22T19:02:09.690Z,10.37
2018-12-22T19:04:44.617Z,10.33
2018-12-22T19:07:17.404Z,17.20
2018-12-22T19:09:47.832Z,11.87
2018-12-22T19:12:18.218Z,11.03
2018-12-22T19:14:51.826Z,10.20
2018-12-22T19:17:31.012Z,7.07
2018-12-22T19:20:01.649Z,10.00
2018-12-22T19:22:34.357Z,6.53
2018-12-22T19:25:08.634Z,7.73
2018-12-22T19:27:37.292Z,5.33
2018-12-22T19:30:07.845Z,4.97
2018-12-22T19:32:40.738Z,5.20
2018-12-22T19:35:13.471Z,6.60
2018-12-22T19:37:48.239Z,6.20
2018-12-22T19:40:27.773Z,6.37
2018-12-22T19:43:00.351Z,7.90
2018-12-22T19:45:30.910Z,8.87
2018-12-22T19:48:08.253Z,13.87
2018-12-22T19:50:38.720Z,15.43
2018-12-22T19:53:11.484Z,9.80
2018-12-22T19:55:44.222Z,9.03
2018-12-22T19:58:14.582Z,10.40
2018-12-22T20:00:47.220Z,13.17
2018-12-22T20:03:18.326Z,11.17
2018-12-22T20:05:51.326Z,11.50
2018-12-22T20:08:27.883Z,11.37
2018-12-22T20:10:58.370Z,8.73
2018-12-22T20:13:29.418Z,11.47
2018-12-22T20:16:08.820Z,9.77
2018-12-22T20:18:36.263Z,11.63
2018-12-22T20:21:06.828Z,12.27
2018-12-22T20:23:37.535Z,12.53
2018-12-22T20:26:11.006Z,11.73
2018-12-22T20:41:31.068Z,15.00
2018-12-22T20:44:01.056Z,13.70
2018-12-22T20:46:32.398Z,12.47
2018-12-22T20:49:02.518Z,10.13
2018-12-22T20:51:35.433Z,10.70
2018-12-22T20:54:05.452Z,9.00
2018-12-22T20:56:39.231Z,9.47
2018-12-22T20:59:07.832Z,8.33
2018-12-22T21:01:42.216Z,8.20
2018-12-22T21:04:19.806Z,8.77
2018-12-22T21:06:52.096Z,10.77
2018-12-22T21:09:30.040Z,11.80
2018-12-22T21:12:04.444Z,10.93
2018-12-22T21:14:34.465Z,10.27
2018-12-22T21:17:07.195Z,10.73
2018-12-22T21:19:37.493Z,10.33
2018-12-22T21:22:09.290Z,10.73
2018-12-22T21:24:42.132Z,11.23
2018-12-22T21:27:16.472Z,10.97
2018-12-22T21:29:50.185Z,11.13
2018-12-22T21:32:23.218Z,10.23
2018-12-22T21:34:53.323Z,11.40
2018-12-22T21:37:23.240Z,10.80
2018-12-22T21:39:53.344Z,14.50
2018-12-22T21:42:25.811Z,11.93
2018-12-22T21:44:59.749Z,6.60
2018-12-22T21:47:29.791Z,5.43
2018-12-22T21:49:59.886Z,6.43
2018-12-22T21:57:29.965Z,7.80
2018-12-22T22:00:02.888Z,10.10
2018-12-22T22:02:36.983Z,12.90
2018-12-22T22:05:06.725Z,11.77
2018-12-22T22:07:37.119Z,12.03
2018-12-22T22:10:07.673Z,11.23
2018-12-22T22:12:43.801Z,13.07
2018-12-22T22:15:17.349Z,14.87
2018-12-22T22:17:48.018Z,15.37
2018-12-22T22:20:28.984Z,16.57
2018-12-22T22:23:05.276Z,16.87
2018-12-22T22:25:41.938Z,16.27
2018-12-22T22:28:16.001Z,14.87
2018-12-22T22:30:49.517Z,12.50
2018-12-22T22:33:25.451Z,13.00
2018-12-22T22:35:58.643Z,13.87
2018-12-22T22:38:28.924Z,15.50
2018-12-22T22:41:09.636Z,17.27
2018-12-22T22:43:47.801Z,17.50
2018-12-22T22:46:28.508Z,20.33
2018-12-22T22:49:01.047Z,19.80
2018-12-22T22:51:33.785Z,20.73
2018-12-22T22:54:04.863Z,20.07
2018-12-22T22:56:35.038Z,21.13
2018-12-22T22:59:08.590Z,21.00
2018-12-22T23:01:42.904Z,19.47
2018-12-22T23:04:19.484Z,19.63
2018-12-22T23:06:49.621Z,21.53
2018-12-22T23:09:23.584Z,22.40
2018-12-22T23:11:57.680Z,21.30
2018-12-22T23:14:33.270Z,21.47
2018-12-22T23:17:06.766Z,22.93
2018-12-22T23:19:38.349Z,22.23
2018-12-22T23:22:08.144Z,24.47
2018-12-22T23:24:41.746Z,23.27
2018-12-22T23:27:15.989Z,21.43
2018-12-22T23:29:46.309Z,22.73
2018-12-22T23:32:19.979Z,24.73
2018-12-22T23:34:53.479Z,23.10
2018-12-22T23:37:26.743Z,23.30
2018-12-22T23:40:00.404Z,25.00
2018-12-22T23:42:33.170Z,23.37
2018-12-22T23:45:10.227Z,23.70
2018-12-22T23:47:41.073Z,22.63
2018-12-22T23:50:11.909Z,20.83
2018-12-22T23:52:42.343Z,23.27
2018-12-22T23:55:16.654Z,25.67
2018-12-22T23:57:50.539Z,28.23
